createdAt,value
2023-04-18T00:01:44.494Z,7.63
2023-04-18T00:04:11.693Z,7.10
2023-04-18T00:06:38.332Z,6.40
2023-04-18T00:09:05.168Z,5.65
2023-04-18T00:11:31.661Z,5.90
2023-04-18T00:13:59.430Z,5.80
2023-04-18T00:16:27.279Z,5.88
2023-04-18T00:18:54.242Z,6.32
2023-04-18T00:21:23.281Z,5.15
2023-04-18T00:23:50.059Z,5.63
2023-04-18T00:26:16.451Z,5.32
2023-04-18T00:28:42.877Z,4.78
2023-04-18T00:31:09.477Z,5.18
2023-04-18T00:33:36.151Z,5.20
2023-04-18T00:36:02.686Z,4.27
2023-04-18T00:38:29.198Z,3.60
2023-04-18T00:40:55.593Z,4.03
2023-04-18T00:43:23.716Z,4.72
2023-04-18T00:45:50.780Z,4.32
2023-04-18T00:48:17.859Z,4.13
2023-04-18T00:50:45.398Z,4.50
2023-04-18T00:53:13.234Z,4.03
2023-04-18T00:55:40.671Z,4.50
2023-04-18T00:58:07.389Z,4.25
2023-04-18T01:00:34.168Z,3.97
2023-04-18T01:03:01.811Z,3.70
2023-04-18T01:05:28.597Z,3.90
2023-04-18T01:08:00.816Z,4.10
2023-04-18T01:10:28.478Z,4.18
2023-04-18T01:13:15.244Z,3.77
2023-04-18T01:15:43.222Z,4.63
2023-04-18T01:18:13.157Z,4.47
2023-04-18T01:20:41.634Z,4.57
2023-04-18T01:23:10.291Z,3.92
2023-04-18T01:25:38.378Z,4.23
2023-04-18T01:28:06.916Z,4.85
2023-04-18T01:30:34.693Z,3.88
2023-04-18T01:33:04.415Z,3.15
2023-04-18T01:35:32.107Z,3.67
2023-04-18T01:38:00.004Z,3.23
2023-04-18T01:40:26.693Z,3.85
2023-04-18T01:42:55.148Z,5.22
2023-04-18T01:45:22.371Z,3.53
2023-04-18T01:47:49.103Z,3.97
2023-04-18T01:50:15.881Z,4.03
2023-04-18T01:52:42.355Z,3.75
2023-04-18T01:55:09.986Z,3.72
2023-04-18T01:57:37.271Z,4.22
2023-04-18T02:00:06.171Z,3.13
2023-04-18T02:02:34.019Z,3.13
2023-04-18T02:05:00.772Z,3.20
2023-04-18T02:07:28.105Z,4.03
2023-04-18T02:09:54.700Z,3.50
2023-04-18T02:12:26.583Z,4.13
2023-04-18T02:14:54.677Z,3.70
2023-04-18T02:17:23.566Z,3.33
2023-04-18T02:19:51.643Z,3.85
2023-04-18T02:22:18.328Z,3.50
2023-04-18T02:24:45.358Z,3.78
2023-04-18T02:27:12.217Z,3.40
2023-04-18T02:29:38.709Z,3.83
2023-04-18T02:32:05.749Z,3.58
2023-04-18T02:34:33.662Z,3.58
2023-04-18T02:37:00.182Z,3.75
2023-04-18T02:39:26.712Z,3.60
2023-04-18T02:41:53.190Z,3.30
2023-04-18T02:44:19.745Z,3.78
2023-04-18T02:46:46.485Z,3.25
2023-04-18T02:49:13.162Z,3.50
2023-04-18T02:51:39.594Z,3.90
2023-04-18T02:54:06.078Z,3.40
2023-04-18T02:56:32.585Z,3.72
2023-04-18T02:59:00.544Z,3.55
2023-04-18T03:01:27.015Z,3.70
2023-04-18T03:03:53.673Z,3.30
2023-04-18T03:06:20.221Z,3.80
2023-04-18T03:08:46.718Z,3.47
2023-04-18T03:11:14.016Z,4.30
2023-04-18T03:13:40.918Z,3.97
2023-04-18T03:16:07.675Z,3.97
2023-04-18T03:18:34.262Z,3.58
2023-04-18T03:21:01.493Z,3.88
2023-04-18T03:23:28.626Z,4.03
2023-04-18T03:25:55.512Z,3.70
2023-04-18T03:28:21.947Z,4.27
2023-04-18T03:30:49.322Z,4.68
2023-04-18T03:33:17.055Z,3.85
2023-04-18T03:35:43.662Z,4.40
2023-04-18T03:38:10.105Z,4.07
2023-04-18T03:40:36.612Z,4.97
2023-04-18T03:43:03.137Z,5.10
2023-04-18T03:45:30.127Z,4.30
2023-04-18T03:47:56.703Z,4.28
2023-04-18T03:50:24.344Z,4.70
2023-04-18T03:52:52.226Z,4.20
2023-04-18T03:55:19.764Z,3.95
2023-04-18T03:57:46.934Z,4.70
2023-04-18T04:00:14.422Z,4.68
2023-04-18T04:02:41.050Z,4.47
2023-04-18T04:05:08.168Z,4.63
2023-04-18T04:07:35.337Z,3.90
2023-04-18T04:10:02.129Z,4.75
2023-04-18T04:12:29.186Z,4.35
2023-04-18T04:14:55.720Z,4.07
2023-04-18T04:17:22.514Z,3.97
2023-04-18T04:19:50.416Z,4.50
2023-04-18T04:22:17.187Z,4.47
2023-04-18T04:24:44.086Z,4.75
2023-04-18T04:27:12.653Z,4.40
2023-04-18T04:29:39.724Z,4.93
2023-04-18T04:32:06.713Z,4.75
2023-04-18T04:34:34.534Z,4.53
2023-04-18T04:37:01.384Z,4.47
2023-04-18T04:39:27.884Z,5.00
2023-04-18T04:41:54.399Z,4.83
2023-04-18T04:44:21.960Z,5.72
2023-04-18T04:46:50.017Z,4.30
2023-04-18T04:49:16.459Z,4.85
2023-04-18T04:51:43.016Z,4.95
2023-04-18T04:54:09.426Z,5.10
2023-04-18T04:56:36.687Z,5.38
2023-04-18T04:59:03.179Z,5.15
2023-04-18T05:01:29.635Z,4.80
2023-04-18T05:03:56.232Z,5.38
2023-04-18T05:06:24.568Z,5.03
2023-04-18T05:08:51.173Z,3.97
2023-04-18T05:11:18.226Z,5.78
2023-04-18T05:13:44.746Z,5.55
2023-04-18T05:16:11.293Z,4.57
2023-04-18T05:18:39.313Z,4.63
2023-04-18T05:21:06.181Z,3.55
2023-04-18T05:23:34.876Z,4.72
2023-04-18T05:26:01.390Z,5.15
2023-04-18T05:28:27.742Z,5.32
2023-04-18T05:31:01.076Z,4.77
2023-04-18T05:33:31.917Z,4.97
2023-04-18T05:35:58.853Z,4.38
2023-04-18T05:38:25.777Z,5.65
2023-04-18T05:40:52.356Z,4.13
2023-04-18T05:43:19.658Z,4.23
2023-04-18T05:45:46.901Z,5.00
2023-04-18T05:48:13.926Z,5.22
2023-04-18T05:50:40.760Z,4.47
2023-04-18T05:53:07.274Z,5.28
2023-04-18T05:55:34.384Z,5.07
2023-04-18T05:58:01.086Z,4.32
2023-04-18T06:00:28.210Z,5.28
2023-04-18T06:02:55.129Z,5.43
2023-04-18T06:05:22.067Z,5.43
2023-04-18T06:07:48.553Z,5.13
2023-04-18T06:10:16.036Z,5.47
2023-04-18T06:12:42.470Z,5.60
2023-04-18T06:15:09.839Z,3.97
2023-04-18T06:17:50.443Z,5.35
2023-04-18T06:23:11.788Z,5.05
2023-04-18T06:25:40.810Z,5.10
2023-04-18T06:28:07.362Z,4.07
2023-04-18T06:30:33.922Z,5.20
2023-04-18T06:33:02.154Z,5.17
2023-04-18T06:35:34.806Z,5.07
2023-04-18T06:38:03.961Z,4.93
2023-04-18T06:47:49.022Z,5.03
2023-04-18T06:50:19.609Z,4.10
2023-04-18T06:52:50.437Z,3.97
2023-04-18T06:55:19.672Z,4.53
2023-04-18T06:57:47.457Z,4.60
2023-04-18T07:00:15.987Z,4.87
2023-04-18T07:02:44.213Z,4.07
2023-04-18T07:05:10.944Z,4.47
2023-04-18T07:07:37.738Z,4.10
2023-04-18T07:10:04.989Z,5.00
2023-04-18T07:12:31.524Z,4.80
2023-04-18T07:14:59.069Z,4.00
2023-04-18T07:20:23.585Z,3.75
2023-04-18T07:22:51.431Z,3.90
2023-04-18T07:25:20.167Z,3.60
2023-04-18T07:27:49.387Z,3.58
2023-04-18T07:30:19.203Z,4.32
2023-04-18T07:32:46.535Z,4.70
2023-04-18T07:35:13.224Z,4.65
2023-04-18T07:37:39.732Z,3.73
2023-04-18T07:40:10.032Z,4.45
2023-04-18T07:42:41.790Z,4.13
2023-04-18T07:45:08.826Z,3.92
2023-04-18T07:47:43.632Z,4.07
2023-04-18T07:50:18.724Z,3.63
2023-04-18T07:52:47.757Z,3.97
2023-04-18T07:55:15.220Z,3.75
2023-04-18T07:57:48.061Z,3.58
2023-04-18T08:00:17.169Z,4.40
2023-04-18T08:02:45.898Z,3.70
2023-04-18T08:05:12.636Z,3.95
2023-04-18T08:07:39.148Z,3.53
2023-04-18T08:10:07.579Z,3.58
2023-04-18T08:12:34.444Z,4.05
2023-04-18T08:15:01.019Z,2.38
2023-04-18T08:17:51.136Z,3.38
2023-04-18T08:21:08.050Z,4.07
2023-04-18T08:23:34.629Z,2.95
2023-04-18T08:26:04.610Z,3.72
2023-04-18T08:28:32.375Z,3.50
2023-04-18T08:30:58.883Z,2.95
2023-04-18T08:33:25.602Z,3.97
2023-04-18T08:35:52.454Z,3.00
2023-04-18T08:38:21.741Z,2.08
2023-04-18T08:40:49.451Z,2.92
2023-04-18T08:43:16.164Z,2.92
2023-04-18T08:45:44.362Z,2.83
2023-04-18T08:48:15.299Z,3.45
2023-04-18T08:50:43.702Z,3.10
2023-04-18T08:53:11.921Z,3.13
2023-04-18T08:55:38.430Z,3.10
2023-04-18T08:58:06.901Z,4.20
2023-04-18T09:00:34.311Z,2.80
2023-04-18T09:03:03.927Z,2.78
2023-04-18T09:05:40.176Z,2.92
2023-04-18T09:08:24.370Z,2.63
2023-04-18T09:10:51.082Z,2.92
2023-04-18T09:13:38.486Z,3.30
2023-04-18T09:16:06.376Z,2.83
2023-04-18T09:18:32.890Z,2.70
2023-04-18T09:21:17.475Z,2.72
2023-04-18T09:23:46.536Z,3.50
2023-04-18T09:26:29.627Z,3.25
2023-04-18T09:29:06.424Z,3.10
2023-04-18T09:35:29.049Z,3.13
2023-04-18T09:37:55.820Z,3.30
2023-04-18T09:40:24.248Z,3.72
2023-04-18T09:43:17.604Z,3.78
2023-04-18T09:45:44.228Z,2.85
2023-04-18T09:48:11.110Z,2.63
2023-04-18T09:50:40.237Z,2.22
2023-04-18T09:53:08.722Z,2.30
2023-04-18T09:55:36.309Z,2.38
2023-04-18T09:58:05.185Z,2.55
2023-04-18T10:00:34.176Z,2.22
2023-04-18T10:03:08.201Z,2.30
2023-04-18T10:05:36.485Z,1.52
2023-04-18T10:08:03.720Z,1.77
2023-04-18T10:10:35.007Z,2.20
2023-04-18T10:13:03.158Z,2.53
2023-04-18T10:15:32.114Z,2.17
2023-04-18T10:18:05.071Z,1.77
2023-04-18T10:20:36.139Z,1.92
2023-04-18T10:23:38.203Z,1.92
2023-04-18T10:26:08.821Z,2.00
2023-04-18T10:28:56.904Z,2.28
2023-04-18T10:31:28.345Z,2.10
2023-04-18T10:34:26.258Z,2.67
2023-04-18T10:37:15.285Z,2.50
2023-04-18T10:45:37.516Z,2.30
2023-04-18T10:48:29.979Z,1.90
2023-04-18T10:51:17.128Z,2.40
2023-04-18T10:53:51.976Z,2.27
2023-04-18T10:56:21.440Z,2.58
2023-04-18T10:58:52.292Z,1.92
2023-04-18T11:01:32.176Z,2.10
2023-04-18T11:04:00.248Z,1.38
2023-04-18T11:06:27.996Z,2.07
2023-04-18T11:09:21.840Z,2.13
2023-04-18T11:12:06.621Z,2.67
2023-04-18T11:15:23.577Z,2.80
2023-04-18T11:18:01.323Z,2.40
2023-04-18T11:20:29.746Z,2.93
2023-04-18T11:22:58.775Z,3.22
2023-04-18T11:25:32.037Z,3.20
2023-04-18T11:28:00.483Z,2.42
2023-04-18T11:30:28.434Z,4.13
2023-04-18T11:32:56.334Z,3.33
2023-04-18T11:35:22.929Z,3.60
2023-04-18T11:37:51.481Z,3.33
2023-04-18T11:40:18.471Z,3.95
2023-04-18T11:42:48.214Z,3.47
2023-04-18T11:45:16.182Z,3.38
2023-04-18T11:47:43.976Z,3.63
2023-04-18T11:50:12.951Z,3.80
2023-04-18T11:52:42.899Z,3.72
2023-04-18T11:55:20.659Z,4.10
2023-04-18T11:58:08.995Z,3.60
2023-04-18T12:00:54.854Z,3.50
2023-04-18T12:03:26.812Z,4.70
2023-04-18T12:08:44.896Z,3.78
2023-04-18T12:11:21.926Z,4.47
2023-04-18T12:13:48.621Z,4.10
2023-04-18T12:16:17.344Z,5.15
2023-04-18T12:19:11.337Z,4.70
2023-04-18T12:21:55.527Z,4.68
2023-04-18T12:24:25.012Z,4.83
2023-04-18T12:26:57.480Z,3.78
2023-04-18T12:29:24.923Z,5.00
2023-04-18T12:31:51.737Z,4.80
2023-04-18T12:34:18.622Z,5.68
2023-04-18T12:36:55.119Z,5.27
2023-04-18T12:39:21.537Z,5.65
2023-04-18T12:41:49.710Z,5.00
2023-04-18T12:44:16.822Z,6.20
2023-04-18T12:46:43.460Z,5.53
2023-04-18T12:49:11.426Z,6.07
2023-04-18T12:51:38.316Z,5.35
2023-04-18T12:54:04.913Z,6.20
2023-04-18T12:56:31.574Z,5.25
2023-04-18T12:58:58.116Z,4.78
2023-04-18T13:01:26.400Z,4.27
2023-04-18T13:04:08.298Z,4.93
2023-04-18T13:06:38.431Z,5.55
2023-04-18T13:09:08.224Z,5.78
2023-04-18T13:11:34.708Z,6.32
2023-04-18T13:14:03.481Z,6.53
2023-04-18T13:16:29.949Z,5.85
2023-04-18T13:18:56.555Z,5.78
2023-04-18T13:21:25.148Z,7.50
2023-04-18T13:23:52.105Z,5.68
2023-04-18T13:26:20.168Z,6.63
2023-04-18T13:28:46.640Z,6.53
2023-04-18T13:31:15.661Z,5.35
2023-04-18T13:33:43.485Z,6.63
2023-04-18T13:36:10.238Z,5.15
2023-04-18T13:38:38.369Z,6.87
2023-04-18T13:41:12.225Z,6.00
2023-04-18T13:43:39.037Z,6.65
2023-04-18T13:46:09.348Z,6.25
2023-04-18T13:48:36.307Z,5.65
2023-04-18T13:51:03.245Z,6.97
2023-04-18T13:53:31.192Z,6.43
2023-04-18T13:55:58.314Z,6.38
2023-04-18T13:58:24.843Z,6.47
2023-04-18T14:03:36.440Z,6.00
2023-04-18T14:06:05.331Z,6.80
2023-04-18T14:08:31.848Z,5.95
2023-04-18T14:10:58.489Z,6.88
2023-04-18T14:13:25.020Z,5.78
2023-04-18T14:15:53.035Z,8.73
2023-04-18T14:18:21.824Z,5.72
2023-04-18T14:20:48.666Z,6.65
2023-04-18T14:23:16.235Z,6.68
2023-04-18T14:25:43.986Z,6.10
2023-04-18T14:28:13.122Z,6.67
2023-04-18T14:30:45.557Z,6.13
2023-04-18T14:33:12.640Z,6.82
2023-04-18T14:35:39.374Z,6.85
2023-04-18T14:38:08.410Z,6.03
2023-04-18T14:40:36.637Z,6.90
2023-04-18T14:43:09.533Z,6.30
2023-04-18T14:45:36.027Z,5.00
2023-04-18T14:48:02.964Z,6.00
2023-04-18T14:54:31.551Z,5.33
2023-04-18T14:57:01.404Z,5.20
2023-04-18T14:59:30.239Z,6.45
2023-04-18T15:01:57.134Z,5.55
2023-04-18T15:04:50.734Z,4.95
2023-04-18T15:07:19.037Z,5.73
2023-04-18T15:12:27.266Z,5.60
2023-04-18T15:14:55.940Z,5.53
2023-04-18T15:17:22.571Z,5.70
2023-04-18T15:19:50.960Z,5.50
2023-04-18T15:22:20.866Z,5.10
2023-04-18T15:24:49.108Z,5.40
2023-04-18T15:27:16.648Z,6.03
2023-04-18T15:29:50.640Z,4.80
2023-04-18T15:32:18.010Z,5.37
2023-04-18T15:34:44.765Z,4.82
2023-04-18T15:37:11.859Z,5.50
2023-04-18T15:39:39.325Z,5.15
2023-04-18T15:42:07.585Z,5.00
2023-04-18T15:44:34.443Z,4.47
2023-04-18T15:47:03.585Z,4.60
2023-04-18T15:49:30.166Z,5.45
2023-04-18T15:51:56.981Z,5.55
2023-04-18T15:54:23.827Z,4.95
2023-04-18T15:56:51.089Z,5.47
2023-04-18T15:59:17.804Z,5.25
2023-04-18T16:01:49.961Z,4.22
2023-04-18T16:04:23.955Z,4.90
2023-04-18T16:07:27.650Z,4.32
2023-04-18T16:09:54.269Z,4.53
2023-04-18T16:12:20.977Z,4.78
2023-04-18T16:14:47.452Z,4.68
2023-04-18T16:17:15.426Z,5.07
2023-04-18T16:19:42.162Z,4.45
2023-04-18T16:22:18.531Z,4.43
2023-04-18T16:24:45.403Z,4.72
2023-04-18T16:27:11.940Z,5.03
2023-04-18T16:29:39.561Z,4.93
2023-04-18T16:32:06.710Z,4.85
2023-04-18T16:37:22.337Z,4.73
2023-04-18T16:37:26.716Z,4.93
2023-04-18T16:39:53.367Z,4.47
2023-04-18T16:42:20.193Z,4.72
2023-04-18T16:44:47.338Z,4.40
2023-04-18T16:47:14.897Z,4.43
2023-04-18T16:53:45.956Z,3.88
2023-04-18T16:56:13.698Z,4.18
2023-04-18T16:58:40.942Z,4.20
2023-04-18T17:01:08.219Z,4.40
2023-04-18T17:03:35.325Z,3.97
2023-04-18T17:06:02.124Z,5.05
2023-04-18T17:08:29.008Z,4.22
2023-04-18T17:10:59.576Z,4.78
2023-04-18T17:13:27.294Z,3.97
2023-04-18T17:15:54.142Z,3.88
2023-04-18T17:18:20.999Z,4.05
2023-04-18T17:20:50.581Z,3.78
2023-04-18T17:23:18.466Z,4.43
2023-04-18T17:25:47.997Z,4.67
2023-04-18T17:28:17.065Z,4.30
2023-04-18T17:30:44.032Z,4.57
2023-04-18T17:33:11.240Z,4.53
2023-04-18T17:35:41.355Z,4.00
2023-04-18T17:38:09.234Z,4.23
2023-04-18T17:40:35.764Z,4.68
2023-04-18T17:43:02.313Z,4.47
2023-04-18T17:45:28.976Z,4.40
2023-04-18T17:47:59.425Z,4.43
2023-04-18T17:50:28.584Z,3.83
2023-04-18T17:52:57.805Z,4.68
2023-04-18T17:55:27.535Z,4.18
2023-04-18T17:57:57.672Z,4.03
2023-04-18T18:00:27.928Z,4.30
2023-04-18T18:02:54.830Z,4.43
2023-04-18T18:05:23.983Z,4.25
2023-04-18T18:10:51.243Z,4.35
2023-04-18T18:13:22.650Z,4.75
2023-04-18T18:15:49.586Z,4.33
2023-04-18T18:20:58.136Z,4.38
2023-04-18T18:23:25.319Z,4.35
2023-04-18T18:29:14.325Z,4.55
2023-04-18T18:31:41.660Z,4.45
2023-04-18T18:34:08.720Z,4.45
2023-04-18T18:36:35.542Z,4.90
2023-04-18T18:39:02.294Z,4.68
2023-04-18T18:41:28.818Z,4.13
2023-04-18T18:44:03.752Z,4.72
2023-04-18T18:46:34.653Z,4.70
2023-04-18T18:49:03.815Z,5.03
2023-04-18T18:51:32.886Z,5.10
2023-04-18T18:53:59.498Z,5.38
2023-04-18T18:56:26.337Z,4.88
2023-04-18T18:59:04.162Z,5.07
2023-04-18T19:01:31.229Z,5.22
2023-04-18T19:04:00.898Z,4.80
2023-04-18T19:06:30.860Z,4.28
2023-04-18T19:09:00.123Z,4.72
2023-04-18T19:11:27.983Z,4.43
2023-04-18T19:13:56.177Z,4.70
2023-04-18T19:16:28.016Z,4.15
2023-04-18T19:19:06.076Z,4.15
2023-04-18T19:21:33.457Z,4.03
2023-04-18T19:24:02.016Z,4.35
2023-04-18T19:26:31.005Z,4.47
2023-04-18T19:31:57.616Z,3.95
2023-04-18T19:34:25.361Z,3.58
2023-04-18T19:36:55.259Z,3.17
2023-04-18T19:39:22.898Z,3.42
2023-04-18T19:41:53.958Z,2.90
2023-04-18T19:44:25.318Z,3.17
2023-04-18T19:46:52.646Z,2.90
2023-04-18T19:49:22.762Z,2.90
2023-04-18T19:51:55.521Z,2.70
2023-04-18T19:54:22.251Z,2.93
2023-04-18T19:56:51.870Z,3.42
2023-04-18T19:59:31.431Z,3.40
2023-04-18T20:04:47.132Z,3.80
2023-04-18T20:07:18.103Z,3.00
2023-04-18T20:09:53.123Z,2.40
2023-04-18T20:12:24.105Z,3.38
2023-04-18T20:14:51.981Z,2.92
2023-04-18T20:17:30.507Z,2.83
2023-04-18T20:19:57.686Z,2.93
2023-04-18T20:22:27.515Z,3.35
2023-04-18T20:24:57.920Z,3.33
2023-04-18T20:27:28.970Z,3.35
2023-04-18T20:29:57.231Z,3.33
2023-04-18T20:32:24.157Z,2.85
2023-04-18T20:34:54.664Z,3.65
2023-04-18T20:37:21.657Z,3.38
2023-04-18T20:39:53.062Z,3.33
2023-04-18T20:42:19.696Z,3.17
2023-04-18T20:44:47.077Z,3.10
2023-04-18T20:47:15.832Z,2.95
2023-04-18T20:49:42.633Z,3.20
2023-04-18T20:52:17.610Z,3.85
2023-04-18T20:54:44.155Z,3.08
2023-04-18T20:57:18.310Z,2.90
2023-04-18T20:59:48.830Z,2.95
2023-04-18T21:02:17.004Z,2.85
2023-04-18T21:04:44.553Z,3.33
2023-04-18T21:07:11.449Z,3.00
2023-04-18T21:09:38.366Z,3.17
2023-04-18T21:12:07.155Z,3.40
2023-04-18T21:14:33.778Z,3.15
2023-04-18T21:17:00.844Z,2.80
2023-04-18T21:19:29.686Z,3.13
2023-04-18T21:21:56.356Z,2.87
2023-04-18T21:24:23.111Z,2.85
2023-04-18T21:26:52.468Z,2.63
2023-04-18T21:29:19.038Z,2.72
2023-04-18T21:31:45.560Z,2.75
2023-04-18T21:34:12.604Z,2.93
2023-04-18T21:36:40.166Z,3.40
2023-04-18T21:39:06.714Z,3.45
2023-04-18T21:41:34.417Z,2.67
2023-04-18T21:44:03.403Z,3.35
2023-04-18T21:46:30.102Z,2.93
2023-04-18T21:48:56.756Z,3.00
2023-04-18T21:51:23.591Z,3.15
2023-04-18T21:53:52.309Z,2.95
2023-04-18T21:56:18.990Z,2.78
2023-04-18T21:58:46.100Z,2.70
2023-04-18T22:01:12.829Z,3.10
2023-04-18T22:03:39.811Z,2.80
2023-04-18T22:06:10.477Z,2.97
2023-04-18T22:08:37.172Z,2.33
2023-04-18T22:11:04.953Z,2.93
2023-04-18T22:13:34.371Z,3.03
2023-04-18T22:16:05.044Z,3.33
2023-04-18T22:18:37.561Z,2.67
2023-04-18T22:21:04.694Z,2.80
2023-04-18T22:23:31.200Z,2.50
2023-04-18T22:25:58.606Z,2.78
2023-04-18T22:28:28.052Z,2.97
2023-04-18T22:30:58.410Z,3.22
2023-04-18T22:33:26.541Z,2.28
2023-04-18T22:35:53.584Z,3.07
2023-04-18T22:38:20.123Z,3.17
2023-04-18T22:40:46.756Z,2.78
2023-04-18T22:43:13.607Z,3.08
2023-04-18T22:45:40.454Z,2.80
2023-04-18T22:48:11.268Z,2.97
2023-04-18T22:50:42.614Z,2.83
2023-04-18T22:53:10.829Z,2.83
2023-04-18T22:55:41.783Z,3.00
2023-04-18T22:58:09.163Z,3.25
2023-04-18T23:00:37.733Z,3.10
2023-04-18T23:03:05.083Z,2.90
2023-04-18T23:05:31.782Z,3.08
2023-04-18T23:08:00.227Z,3.25
2023-04-18T23:10:27.157Z,3.08
2023-04-18T23:12:53.933Z,3.23
2023-04-18T23:15:23.089Z,3.63
2023-04-18T23:17:54.595Z,3.13
2023-04-18T23:20:21.826Z,2.30
2023-04-18T23:22:51.818Z,3.63
2023-04-18T23:25:21.172Z,3.73
2023-04-18T23:27:48.392Z,3.40
2023-04-18T23:30:22.428Z,3.55
2023-04-18T23:32:49.003Z,3.33
2023-04-18T23:35:15.921Z,3.50
2023-04-18T23:37:42.444Z,3.30
2023-04-18T23:40:09.156Z,2.97
2023-04-18T23:42:37.122Z,3.70
2023-04-18T23:45:04.150Z,3.42
2023-04-18T23:47:30.716Z,3.83
2023-04-18T23:49:57.472Z,3.97
2023-04-18T23:52:24.217Z,4.13
2023-04-18T23:54:51.936Z,4.00
2023-04-18T23:57:18.991Z,3.83
2023-04-18T23:59:45.632Z,4.05
